Time;durP1;ratioP1;P1;durP2;ratioP2;P2;SDS_P1;SDS_P2;PMS_P1;PMS_P2;Temp;Humidity;BMP_temperature;BMP_pressure;BME280_temperature;BME280_humidity;BME280_pressure;Samples;Min_cycle;Max_cycle;Signal;HPM_P1;HPM_P2
2023/04/26 00:00:32;;;;;;;9.37;1.30;;;5.20;99.90;;;;;;5061002;28;20098;-71
2023/04/26 00:02:59;;;;;;;4.88;0.90;;;5.10;99.90;;;;;;5038543;28;20097;-71
2023/04/26 00:05:25;;;;;;;2.53;1.10;;;5.10;99.90;;;;;;5041448;28;20131;-70
2023/04/26 00:07:50;;;;;;;4.77;0.93;;;5.10;99.90;;;;;;5054821;22;20191;-69
2023/04/26 00:10:16;;;;;;;3.53;1.03;;;5.00;99.90;;;;;;5036894;28;20040;-70
2023/04/26 00:12:42;;;;;;;4.10;1.07;;;5.00;99.90;;;;;;5021235;28;20192;-73
2023/04/26 00:15:08;;;;;;;2.40;1.10;;;5.00;99.90;;;;;;5026958;28;20045;-73
2023/04/26 00:17:34;;;;;;;4.15;1.10;;;5.00;99.90;;;;;;5042100;28;20421;-73
2023/04/26 00:20:00;;;;;;;7.73;1.60;;;4.90;99.90;;;;;;5023492;28;20044;-72
2023/04/26 00:22:26;;;;;;;7.13;1.50;;;5.00;99.90;;;;;;5006162;28;20037;-71
2023/04/26 00:24:52;;;;;;;5.93;1.40;;;4.90;99.90;;;;;;5029705;28;20052;-71
2023/04/26 00:27:18;;;;;;;3.20;1.20;;;5.00;99.90;;;;;;5012034;28;20216;-70
2023/04/26 00:29:43;;;;;;;3.27;0.87;;;4.90;99.90;;;;;;5018913;28;20305;-70
2023/04/26 00:32:09;;;;;;;6.33;1.00;;;4.90;99.90;;;;;;5019387;28;20064;-70
2023/04/26 00:34:36;;;;;;;3.13;1.40;;;4.90;99.90;;;;;;5018766;28;20048;-70
2023/04/26 00:37:01;;;;;;;;;;;5.00;99.90;;;;;;5010088;28;20051;-70
2023/04/26 00:39:27;;;;;;;2.78;0.95;;;4.90;99.90;;;;;;5024720;28;19939;-70
2023/04/26 00:41:53;;;;;;;4.93;1.17;;;4.90;99.90;;;;;;5028659;28;20033;-70
2023/04/26 00:44:19;;;;;;;7.85;1.83;;;5.00;99.90;;;;;;5030978;28;20236;-70
2023/04/26 00:46:50;;;;;;;4.27;2.20;;;4.90;99.90;;;;;;5029678;28;20056;-72
2023/04/26 00:49:20;;;;;;;7.95;1.45;;;4.90;99.90;;;;;;5008042;28;20058;-72
2023/04/26 00:51:47;;;;;;;5.80;1.30;;;4.90;99.90;;;;;;5018374;28;20092;-72
2023/04/26 00:54:14;;;;;;;3.47;1.00;;;4.90;99.90;;;;;;5029768;28;20053;-69
2023/04/26 00:56:43;;;;;;;4.75;1.05;;;5.00;99.90;;;;;;5014409;28;20047;-72
2023/04/26 00:59:09;;;;;;;1.80;0.70;;;5.00;99.90;;;;;;5017329;28;20112;-72
2023/04/26 01:01:35;;;;;;;6.53;1.10;;;5.00;99.90;;;;;;5038957;28;20447;-72
2023/04/26 01:04:01;;;;;;;4.57;0.90;;;5.00;99.90;;;;;;5008336;28;20061;-72
2023/04/26 01:06:34;;;;;;;4.68;1.20;;;5.00;99.90;;;;;;5022057;28;20430;-72
2023/04/26 01:09:03;;;;;;;3.00;1.13;;;5.10;99.90;;;;;;5028463;28;20427;-72
2023/04/26 01:11:30;;;;;;;6.78;1.15;;;5.10;99.90;;;;;;5036848;28;20048;-72
2023/04/26 01:13:57;;;;;;;6.10;1.52;;;5.10;99.90;;;;;;5019675;28;20107;-72
2023/04/26 01:16:23;;;;;;;;;;;5.00;99.90;;;;;;5015475;28;20037;-72
2023/04/26 01:18:52;;;;;;;3.58;1.13;;;5.10;99.90;;;;;;5044999;28;19928;-72
2023/04/26 01:21:24;;;;;;;7.90;1.05;;;5.00;99.90;;;;;;5017639;28;20509;-72
2023/04/26 01:23:51;;;;;;;5.80;0.90;;;5.00;99.90;;;;;;5036065;28;20384;-72
2023/04/26 01:26:17;;;;;;;2.50;0.95;;;5.10;99.90;;;;;;5046745;28;20102;-72
2023/04/26 01:28:45;;;;;;;6.18;1.70;;;5.00;99.90;;;;;;5021192;28;20132;-72
2023/04/26 01:31:10;;;;;;;3.17;1.35;;;5.00;99.90;;;;;;5022092;28;20057;-72
2023/04/26 01:33:36;;;;;;;2.30;1.10;;;5.00;99.90;;;;;;5026015;28;20120;-72
2023/04/26 01:36:02;;;;;;;3.17;1.57;;;5.00;99.90;;;;;;5028566;28;20041;-72
2023/04/26 01:38:27;;;;;;;6.17;1.10;;;5.00;99.90;;;;;;5021256;28;20045;-72
2023/04/26 01:40:53;;;;;;;3.03;1.00;;;4.90;99.90;;;;;;5025250;28;20040;-72
2023/04/26 01:43:20;;;;;;;3.33;0.83;;;4.90;99.90;;;;;;5012861;28;20060;-72
2023/04/26 01:45:46;;;;;;;;;;;4.90;99.90;;;;;;5025694;28;20041;-72
2023/04/26 01:48:15;;;;;;;3.45;1.70;;;5.00;99.90;;;;;;5032046;28;19925;-72
2023/04/26 01:50:40;;;;;;;3.65;1.48;;;4.90;99.90;;;;;;5026483;28;20051;-72
2023/04/26 01:53:06;;;;;;;3.77;1.50;;;4.90;99.90;;;;;;5025251;28;20045;-72
2023/04/26 01:55:33;;;;;;;4.23;1.03;;;4.90;99.90;;;;;;5044632;28;20127;-72
2023/04/26 01:57:59;;;;;;;6.72;1.23;;;4.80;99.90;;;;;;5034851;28;20064;-72
2023/04/26 02:00:27;;;;;;;3.40;1.00;;;4.80;99.90;;;;;;5027112;28;20037;-72
2023/04/26 02:02:56;;;;;;;2.65;0.93;;;4.80;99.90;;;;;;5046864;28;20052;-72
2023/04/26 02:05:23;;;;;;;4.97;1.02;;;4.80;99.90;;;;;;5027684;28;20212;-72
2023/04/26 02:07:48;;;;;;;;;;;4.70;99.90;;;;;;5028652;28;20041;-72
2023/04/26 02:10:14;;;;;;;3.40;1.05;;;4.70;99.90;;;;;;5015787;28;19916;-72
2023/04/26 02:12:40;;;;;;;3.97;1.23;;;4.70;99.90;;;;;;5044552;28;20049;-72
2023/04/26 02:15:08;;;;;;;4.70;1.77;;;4.70;99.90;;;;;;5045739;28;20140;-72
2023/04/26 02:17:33;;;;;;;4.80;1.75;;;4.70;99.90;;;;;;5044697;28;20037;-72
2023/04/26 02:19:59;;;;;;;5.03;1.33;;;4.60;99.90;;;;;;5030394;28;20118;-72
2023/04/26 02:22:25;;;;;;;3.23;1.60;;;4.60;99.90;;;;;;5020011;28;20033;-72
2023/04/26 02:24:51;;;;;;;4.82;1.33;;;4.60;99.90;;;;;;5031092;28;20048;-72
2023/04/26 02:27:18;;;;;;;3.17;0.90;;;4.50;99.90;;;;;;5022826;28;20076;-72
2023/04/26 02:29:43;;;;;;;4.15;1.02;;;4.50;99.90;;;;;;5046883;28;20094;-72
2023/04/26 02:32:09;;;;;;;3.60;1.03;;;4.50;99.90;;;;;;5048587;28;20041;-72
2023/04/26 02:34:35;;;;;;;2.33;1.20;;;4.50;99.90;;;;;;5055981;28;20047;-72
2023/04/26 02:37:01;;;;;;;5.25;1.33;;;4.40;99.90;;;;;;5024384;28;20071;-72
2023/04/26 02:39:26;;;;;;;5.30;1.20;;;4.40;99.90;;;;;;5013566;28;20052;-72
2023/04/26 02:41:52;;;;;;;8.97;1.10;;;4.30;99.90;;;;;;5020657;28;20033;-72
2023/04/26 02:44:18;;;;;;;4.93;1.00;;;4.30;99.90;;;;;;5027774;28;20059;-72
2023/04/26 02:46:43;;;;;;;5.63;1.20;;;4.30;99.90;;;;;;5046640;28;20064;-72
2023/04/26 02:49:09;;;;;;;5.70;0.97;;;4.20;99.90;;;;;;5025092;28;20040;-72
2023/04/26 02:51:35;;;;;;;5.83;1.30;;;4.20;99.90;;;;;;5026831;28;20106;-72
2023/04/26 02:54:01;;;;;;;3.73;1.23;;;4.20;99.90;;;;;;5046277;28;20463;-72
2023/04/26 02:56:27;;;;;;;8.23;1.30;;;4.20;99.90;;;;;;5016415;28;20559;-72
2023/04/26 02:58:53;;;;;;;2.07;1.13;;;4.30;99.90;;;;;;5047392;28;20049;-72
2023/04/26 03:01:18;;;;;;;3.43;1.20;;;4.30;99.90;;;;;;5026329;28;20128;-72
2023/04/26 03:03:44;;;;;;;8.13;1.30;;;4.30;99.90;;;;;;5043470;28;20044;-72
2023/04/26 03:06:12;;;;;;;4.47;1.07;;;4.30;99.90;;;;;;5027771;28;20395;-72
2023/04/26 03:08:38;;;;;;;2.58;0.75;;;4.30;99.90;;;;;;5019259;28;20380;-72
2023/04/26 03:11:04;;;;;;;3.30;0.77;;;4.40;99.90;;;;;;5027692;28;20071;-72
2023/04/26 03:13:29;;;;;;;5.03;1.10;;;4.40;99.90;;;;;;5025254;28;21355;-72
2023/04/26 03:15:55;;;;;;;3.03;1.20;;;4.50;99.90;;;;;;5030006;28;20036;-72
2023/04/26 03:18:20;;;;;;;5.63;1.10;;;4.50;99.90;;;;;;5024780;28;20060;-72
2023/04/26 03:20:46;;;;;;;3.90;1.07;;;4.50;99.90;;;;;;5057035;28;20040;-72
2023/04/26 03:23:12;;;;;;;2.65;1.08;;;4.60;99.90;;;;;;5049433;28;20483;-72
2023/04/26 03:25:38;;;;;;;2.47;1.03;;;4.50;99.90;;;;;;5022257;28;20339;-72
2023/04/26 03:28:04;;;;;;;1.95;0.75;;;4.50;99.90;;;;;;5012922;28;20037;-72
2023/04/26 03:30:29;;;;;;;4.53;1.33;;;4.50;99.90;;;;;;5018034;28;21078;-70
2023/04/26 03:32:56;;;;;;;3.13;1.30;;;4.50;99.90;;;;;;5027213;28;20867;-69
2023/04/26 03:35:21;;;;;;;3.40;1.55;;;4.50;99.90;;;;;;5044698;28;20048;-69
2023/04/26 03:37:48;;;;;;;4.10;0.83;;;4.50;99.90;;;;;;5024287;28;20503;-72
2023/04/26 03:40:14;;;;;;;2.35;1.13;;;4.40;99.90;;;;;;5025644;28;20761;-72
2023/04/26 03:42:39;;;;;;;5.03;1.33;;;4.40;99.90;;;;;;5041257;28;20072;-72
2023/04/26 03:45:06;;;;;;;3.37;1.30;;;4.40;99.90;;;;;;5029982;28;20040;-72
2023/04/26 03:47:34;;;;;;;4.18;1.50;;;4.40;99.90;;;;;;5037321;28;20865;-72
2023/04/26 03:50:00;;;;;;;3.97;1.42;;;4.40;99.90;;;;;;5023874;28;20517;-72
2023/04/26 03:52:26;;;;;;;3.80;1.00;;;4.40;99.90;;;;;;5033105;28;20044;-72
2023/04/26 03:54:52;;;;;;;2.17;1.07;;;4.40;99.90;;;;;;5024894;28;21724;-72
2023/04/26 03:57:17;;;;;;;4.23;1.37;;;4.40;99.90;;;;;;5036975;28;20037;-69
2023/04/26 03:59:43;;;;;;;9.73;1.10;;;4.40;99.90;;;;;;5043906;28;20102;-70
2023/04/26 04:02:08;;;;;;;9.37;1.30;;;4.50;99.90;;;;;;5042114;28;20570;-69
2023/04/26 04:04:37;;;;;;;4.28;1.42;;;4.50;99.90;;;;;;5033049;28;20045;-70
2023/04/26 04:07:05;;;;;;;6.13;1.10;;;4.50;99.90;;;;;;5028022;28;20037;-69
2023/04/26 04:09:31;;;;;;;5.18;1.00;;;4.60;99.90;;;;;;5025865;28;20047;-69
2023/04/26 04:11:56;;;;;;;4.30;1.30;;;4.60;99.90;;;;;;5027322;28;20421;-72
2023/04/26 04:14:22;;;;;;;2.50;1.03;;;4.60;99.90;;;;;;5044330;28;20124;-72
2023/04/26 04:16:48;;;;;;;2.93;1.07;;;4.60;99.90;;;;;;5023977;28;20461;-72
2023/04/26 04:19:13;;;;;;;4.13;2.23;;;4.60;99.90;;;;;;5045809;28;20410;-72
2023/04/26 04:21:41;;;;;;;3.13;1.23;;;4.60;99.90;;;;;;5021103;28;20070;-72
2023/04/26 04:24:07;;;;;;;2.55;1.20;;;4.60;99.90;;;;;;5026515;28;20116;-72
2023/04/26 04:26:33;;;;;;;5.93;1.40;;;4.60;99.90;;;;;;5024207;28;20557;-72
2023/04/26 04:29:07;;;;;;;4.85;1.35;;;4.60;99.90;;;;;;5011055;28;20068;-72
2023/04/26 04:31:34;;;;;;;4.55;1.20;;;4.50;99.90;;;;;;5043992;28;20601;-72
2023/04/26 04:33:59;;;;;;;3.65;1.23;;;4.60;99.90;;;;;;5053814;28;20443;-72
2023/04/26 04:36:25;;;;;;;4.50;0.93;;;4.50;99.90;;;;;;5048568;28;20156;-72
2023/04/26 04:38:52;;;;;;;3.30;1.10;;;4.50;99.90;;;;;;5030388;28;20040;-72
2023/04/26 04:41:21;;;;;;;5.60;1.20;;;4.50;99.90;;;;;;5019074;28;20041;-72
2023/04/26 04:43:46;;;;;;;3.88;1.52;;;4.50;99.90;;;;;;5030326;28;20278;-72
2023/04/26 04:46:12;;;;;;;7.83;1.30;;;4.40;99.90;;;;;;5028467;28;20092;-72
2023/04/26 04:48:38;;;;;;;4.27;1.30;;;4.40;99.90;;;;;;5023703;28;20048;-72
2023/04/26 04:51:05;;;;;;;4.00;1.40;;;4.40;99.90;;;;;;5020078;28;20095;-72
2023/04/26 04:53:30;;;;;;;2.15;1.10;;;4.40;99.90;;;;;;5039492;28;20136;-72
2023/04/26 04:55:56;;;;;;;3.20;1.23;;;4.30;99.90;;;;;;5027517;28;20076;-72
2023/04/26 04:58:22;;;;;;;6.53;1.13;;;4.30;99.90;;;;;;5005629;28;20087;-72
2023/04/26 05:00:49;;;;;;;2.57;1.00;;;4.40;99.90;;;;;;5021201;28;20208;-72
2023/04/26 05:03:15;;;;;;;5.25;1.40;;;4.30;99.90;;;;;;5021970;28;20128;-72
2023/04/26 05:05:40;;;;;;;2.80;1.07;;;4.30;99.90;;;;;;5046218;28;20052;-72
2023/04/26 05:08:06;;;;;;;4.30;1.23;;;4.30;99.90;;;;;;5009867;28;20108;-72
2023/04/26 05:10:33;;;;;;;3.60;1.40;;;4.30;99.90;;;;;;5039311;28;20431;-72
2023/04/26 05:12:59;;;;;;;;;;;4.30;99.90;;;;;;5037360;28;20114;-72
2023/04/26 05:15:24;;;;;;;3.85;1.23;;;4.30;99.90;;;;;;5027673;28;20074;-72
2023/04/26 05:17:50;;;;;;;6.40;1.30;;;4.30;99.90;;;;;;5027813;28;20045;-72
2023/04/26 05:20:16;;;;;;;2.67;1.07;;;4.30;99.90;;;;;;5031465;28;20037;-72
2023/04/26 05:22:45;;;;;;;7.65;1.75;;;4.30;99.90;;;;;;5027692;28;20045;-72
2023/04/26 05:25:12;;;;;;;;;;;4.30;99.90;;;;;;5015546;28;20036;-72
2023/04/26 05:27:38;;;;;;;9.17;1.90;;;4.40;99.90;;;;;;5030412;28;20028;-72
2023/04/26 05:30:05;;;;;;;2.70;1.30;;;4.40;99.90;;;;;;5037694;28;20509;-72
2023/04/26 05:32:31;;;;;;;3.75;1.45;;;4.40;99.90;;;;;;5037039;28;20509;-72
2023/04/26 05:34:57;;;;;;;4.47;1.30;;;4.50;99.90;;;;;;5025764;28;20041;-72
2023/04/26 05:37:22;;;;;;;2.67;1.02;;;4.60;99.90;;;;;;5015233;28;20128;-72
2023/04/26 05:39:48;;;;;;;4.47;1.70;;;4.60;99.90;;;;;;5041415;28;20300;-72
2023/04/26 05:42:14;;;;;;;8.07;1.30;;;4.60;99.90;;;;;;5028159;28;20041;-72
2023/04/26 05:44:40;;;;;;;3.63;1.23;;;4.60;99.90;;;;;;5042032;28;20053;-72
2023/04/26 05:47:05;;;;;;;5.80;1.48;;;4.70;99.90;;;;;;5020877;28;20446;-72
2023/04/26 05:49:31;;;;;;;7.20;2.30;;;4.70;99.90;;;;;;5023599;28;20091;-72
2023/04/26 05:52:00;;;;;;;13.10;4.40;;;4.70;99.90;;;;;;5024568;28;20482;-72
2023/04/26 05:54:26;;;;;;;5.60;1.90;;;4.80;99.90;;;;;;5029761;28;20060;-72
2023/04/26 05:56:51;;;;;;;5.22;1.90;;;4.80;99.90;;;;;;5027272;28;20283;-72
2023/04/26 05:59:17;;;;;;;5.10;1.60;;;4.80;99.90;;;;;;5018697;28;20036;-72
2023/04/26 06:01:43;;;;;;;5.20;1.73;;;4.80;99.90;;;;;;5021354;28;20064;-72
2023/04/26 06:04:08;;;;;;;5.00;1.83;;;4.80;99.90;;;;;;5015962;28;20094;-72
2023/04/26 06:06:34;;;;;;;6.23;1.77;;;4.90;99.90;;;;;;5019399;28;20469;-72
2023/04/26 06:53:17;;;;;;;3.55;0.93;;;6.40;99.90;;;;;;5061446;28;20036;-87
2023/04/26 06:55:43;;;;;;;4.00;0.98;;;6.40;99.90;;;;;;5041342;28;20041;-88
2023/04/26 06:58:09;;;;;;;5.03;1.07;;;6.50;99.90;;;;;;5022068;28;20052;-89
2023/04/26 07:00:35;;;;;;;5.93;1.50;;;6.70;99.90;;;;;;5042517;28;20474;-88
2023/04/26 07:03:00;;;;;;;2.43;1.40;;;6.70;99.90;;;;;;5012130;28;20047;-88
2023/04/26 07:05:26;;;;;;;4.83;1.10;;;6.70;99.90;;;;;;5026934;28;20267;-89
2023/04/26 07:07:52;;;;;;;1.33;0.83;;;6.80;99.90;;;;;;5024464;28;20044;-88
2023/04/26 07:10:17;;;;;;;3.83;1.10;;;7.00;99.90;;;;;;5024914;28;20565;-89
2023/04/26 07:12:43;;;;;;;2.63;1.27;;;7.00;99.90;;;;;;5044423;28;20048;-88
2023/04/26 07:15:09;;;;;;;2.60;1.13;;;7.10;99.90;;;;;;5047286;28;20056;-91
2023/04/26 07:17:38;;;;;;;5.97;1.20;;;7.20;99.90;;;;;;5017246;28;20411;-88
2023/04/26 07:20:04;;;;;;;3.47;1.10;;;7.20;99.90;;;;;;5026587;28;20043;-88
2023/04/26 07:22:30;;;;;;;3.15;1.02;;;7.30;99.90;;;;;;5020303;28;20060;-90
2023/04/26 07:24:56;;;;;;;9.20;1.23;;;7.40;99.90;;;;;;5041733;28;20121;-88
2023/04/26 07:27:22;;;;;;;3.73;1.17;;;7.40;99.90;;;;;;5029428;28;20077;-88
2023/04/26 07:29:47;;;;;;;4.43;0.80;;;7.60;99.90;;;;;;5015185;28;20040;-88
2023/04/26 07:32:15;;;;;;;9.97;0.97;;;7.60;99.90;;;;;;5043336;28;20043;-88
2023/04/26 07:34:44;;;;;;;5.28;1.20;;;7.70;99.90;;;;;;5024391;28;20117;-88
2023/04/26 07:37:10;;;;;;;4.50;0.88;;;7.70;99.90;;;;;;5018972;28;20041;-88
2023/04/26 07:39:35;;;;;;;4.33;1.33;;;7.70;99.90;;;;;;5021527;28;20097;-90
2023/04/26 07:42:02;;;;;;;6.63;1.50;;;7.70;99.90;;;;;;5028530;28;20297;-89
2023/04/26 07:44:27;;;;;;;2.30;1.13;;;7.70;99.90;;;;;;5045676;28;20505;-88
2023/04/26 07:46:53;;;;;;;4.80;1.00;;;7.70;99.90;;;;;;5016175;28;20129;-88
2023/04/26 07:49:19;;;;;;;4.43;1.17;;;7.80;99.90;;;;;;5024689;28;20454;-88
2023/04/26 07:51:44;;;;;;;3.27;1.07;;;7.80;99.90;;;;;;5026713;28;20071;-87
2023/04/26 07:54:10;;;;;;;1.73;0.87;;;7.80;99.90;;;;;;5025905;28;20033;-88
2023/04/26 07:56:38;;;;;;;3.30;1.00;;;7.90;99.90;;;;;;5041972;28;20121;-88
2023/04/26 07:59:04;;;;;;;7.93;1.50;;;8.00;99.90;;;;;;5059281;28;20048;-88
2023/04/26 08:01:30;;;;;;;5.53;1.60;;;8.10;99.90;;;;;;5022108;28;20036;-88
2023/04/26 08:03:58;;;;;;;3.87;1.50;;;8.10;99.90;;;;;;5025909;28;20042;-87
2023/04/26 08:06:24;;;;;;;9.57;1.05;;;8.10;99.90;;;;;;5020293;28;20321;-90
2023/04/26 08:08:51;;;;;;;2.95;1.10;;;8.10;99.90;;;;;;5024736;28;20039;-88
2023/04/26 08:11:17;;;;;;;3.42;1.30;;;8.20;99.90;;;;;;5021566;28;20040;-87
2023/04/26 08:13:46;;;;;;;4.60;1.50;;;8.30;99.90;;;;;;5018369;28;20069;-88
2023/04/26 08:16:11;;;;;;;2.03;1.10;;;8.40;99.90;;;;;;5026592;28;20033;-88
2023/04/26 08:18:37;;;;;;;2.77;0.90;;;8.40;99.90;;;;;;5037807;28;20479;-88
2023/04/26 08:21:04;;;;;;;3.75;1.65;;;8.50;99.90;;;;;;5023695;28;20037;-87
2023/04/26 08:23:36;;;;;;;3.87;1.40;;;8.40;99.90;;;;;;5025763;28;20036;-88
2023/04/26 08:26:02;;;;;;;7.45;1.20;;;8.40;99.90;;;;;;5016230;28;20151;-88
2023/04/26 08:28:28;;;;;;;6.32;1.10;;;8.40;99.90;;;;;;5043307;28;20110;-87
2023/04/26 08:30:54;;;;;;;5.27;1.10;;;8.30;99.90;;;;;;5037062;28;20044;-88
2023/04/26 08:33:22;;;;;;;9.67;1.10;;;8.30;99.90;;;;;;5022394;28;20044;-89
2023/04/26 08:35:48;;;;;;;4.88;1.38;;;8.20;99.90;;;;;;5022861;28;20093;-89
2023/04/26 08:38:14;;;;;;;6.68;1.40;;;8.10;99.90;;;;;;5038477;28;20082;-89
2023/04/26 08:40:42;;;;;;;4.60;1.13;;;8.00;99.90;;;;;;5022051;28;20068;-88
2023/04/26 08:43:09;;;;;;;6.00;1.20;;;8.00;99.90;;;;;;5029204;28;20202;-88
2023/04/26 08:45:37;;;;;;;3.55;1.10;;;7.90;99.90;;;;;;5017345;28;20036;-90
2023/04/26 08:48:07;;;;;;;4.00;1.00;;;7.90;99.90;;;;;;5023433;28;20085;-88
2023/04/26 08:50:42;;;;;;;2.55;1.17;;;7.90;99.90;;;;;;5038889;28;20486;-89
2023/04/26 08:53:08;;;;;;;2.72;1.00;;;8.00;99.90;;;;;;5022731;28;20072;-89
2023/04/26 08:55:35;;;;;;;;;;;8.10;99.90;;;;;;5037381;28;20040;-88
2023/04/26 08:58:02;;;;;;;6.05;1.60;;;8.10;99.90;;;;;;5021600;28;20279;-89
2023/04/26 09:00:29;;;;;;;6.95;1.27;;;8.10;99.90;;;;;;5038698;28;20033;-88
2023/04/26 09:02:55;;;;;;;;;;;8.20;99.90;;;;;;5020359;28;20082;-88
2023/04/26 09:05:25;;;;;;;2.88;1.05;;;8.10;99.90;;;;;;5023365;28;20317;-89
2023/04/26 09:07:55;;;;;;;1.98;1.10;;;8.10;99.90;;;;;;5042243;28;20040;-90
2023/04/26 09:10:21;;;;;;;4.07;1.30;;;8.00;99.90;;;;;;5039322;28;20097;-88
2023/04/26 09:12:54;;;;;;;4.15;1.67;;;8.20;99.90;;;;;;5042172;28;20048;-88
2023/04/26 09:15:21;;;;;;;5.10;1.23;;;8.00;99.90;;;;;;5024475;28;20406;-88
2023/04/26 09:17:48;;;;;;;5.80;1.27;;;8.00;99.90;;;;;;5028699;28;20097;-88
2023/04/26 09:20:24;;;;;;;7.80;1.90;;;8.00;99.90;;;;;;5023786;28;20040;-88
2023/04/26 09:22:52;;;;;;;2.80;1.20;;;7.80;99.90;;;;;;5036261;28;20064;-88
2023/04/26 09:25:26;;;;;;;5.75;1.95;;;7.80;99.90;;;;;;5024397;28;20490;-88
2023/04/26 09:27:52;;;;;;;3.38;1.35;;;7.80;99.90;;;;;;5019411;28;20139;-88
2023/04/26 09:30:19;;;;;;;5.13;1.25;;;7.70;99.90;;;;;;5030918;28;20109;-88
2023/04/26 09:32:58;;;;;;;3.25;1.40;;;7.80;99.90;;;;;;5035452;28;20099;-88
2023/04/26 09:35:40;;;;;;;7.85;2.75;;;7.70;99.90;;;;;;5025641;28;20077;-88
2023/04/26 09:38:12;;;;;;;5.65;1.30;;;7.70;99.90;;;;;;5022990;28;20478;-89
2023/04/26 09:40:50;;;;;;;5.50;1.60;;;7.80;99.90;;;;;;5021313;28;20402;-88
2023/04/26 09:43:20;;;;;;;5.53;1.77;;;7.90;99.90;;;;;;5022601;28;20029;-88
2023/04/26 09:45:49;;;;;;;4.10;1.60;;;8.10;99.90;;;;;;5029284;28;20045;-89
2023/04/26 09:48:16;;;;;;;6.93;1.80;;;8.20;99.90;;;;;;5026319;28;20422;-89
2023/04/26 09:50:47;;;;;;;7.72;1.73;;;8.30;99.90;;;;;;5018459;28;20048;-88
2023/04/26 09:53:30;;;;;;;4.53;1.45;;;8.40;99.90;;;;;;5019271;28;20032;-88
2023/04/26 09:55:57;;;;;;;3.50;1.05;;;8.60;99.90;;;;;;5037581;28;20468;-89
2023/04/26 09:58:23;;;;;;;6.07;1.20;;;8.60;99.90;;;;;;5025543;28;20300;-90
2023/04/26 10:00:53;;;;;;;6.18;1.20;;;8.70;99.90;;;;;;5024290;28;20080;-89
2023/04/26 10:03:19;;;;;;;5.03;1.38;;;8.80;99.90;;;;;;5025400;28;20058;-88
2023/04/26 10:05:46;;;;;;;5.55;1.35;;;8.90;99.90;;;;;;5030014;28;20047;-88
2023/04/26 10:08:14;;;;;;;5.03;1.45;;;8.90;99.90;;;;;;5023653;28;20517;-88
2023/04/26 10:10:41;;;;;;;2.13;1.17;;;9.00;99.90;;;;;;5027783;28;20033;-88
2023/04/26 10:13:11;;;;;;;7.75;1.38;;;9.00;99.90;;;;;;5044880;28;20425;-87
2023/04/26 10:15:39;;;;;;;3.67;1.30;;;9.10;99.90;;;;;;5028956;28;20036;-88
2023/04/26 10:18:05;;;;;;;11.38;1.90;;;9.20;99.90;;;;;;5043670;28;20086;-88
2023/04/26 10:20:34;;;;;;;2.55;1.30;;;9.30;99.90;;;;;;5047005;28;20101;-88
2023/04/26 10:23:02;;;;;;;3.88;1.50;;;9.40;99.90;;;;;;5045060;28;20048;-87
2023/04/26 10:25:42;;;;;;;2.80;1.38;;;9.40;99.90;;;;;;5030752;28;20039;-88
2023/04/26 10:28:08;;;;;;;4.78;1.58;;;9.40;99.90;;;;;;5028884;28;20514;-88
2023/04/26 10:30:53;;;;;;;4.25;1.05;;;9.20;99.90;;;;;;5047682;28;20526;-89
2023/04/26 10:33:20;;;;;;;6.55;1.35;;;9.10;99.90;;;;;;5032954;28;20068;-89
2023/04/26 10:36:21;;;;;;;5.60;1.63;;;8.90;99.90;;;;;;5043939;28;20283;-89
2023/04/26 10:39:20;;;;;;;2.80;1.10;;;8.80;99.90;;;;;;4992489;28;20083;-88
2023/04/26 10:41:46;;;;;;;7.07;1.48;;;8.60;99.90;;;;;;5029629;28;20036;-88
2023/04/26 10:44:31;;;;;;;5.18;1.60;;;8.60;99.90;;;;;;5035311;28;20478;-88
2023/04/26 10:46:57;;;;;;;3.83;1.17;;;8.50;99.90;;;;;;5023542;28;20048;-88
2023/04/26 10:49:25;;;;;;;4.70;1.83;;;8.50;99.90;;;;;;5050515;28;20659;-89
2023/04/26 10:52:11;;;;;;;2.73;1.10;;;8.60;99.90;;;;;;5054577;28;20095;-88
2023/04/26 10:54:50;;;;;;;2.63;0.90;;;8.70;99.90;;;;;;5040373;28;20304;-88
2023/04/26 10:57:16;;;;;;;3.22;1.80;;;8.80;99.90;;;;;;5041330;28;20049;-89
2023/04/26 11:00:04;;;;;;;;;;;8.90;99.90;;;;;;5037858;28;20029;-91
2023/04/26 11:02:57;;;;;;;8.32;2.42;;;9.00;99.90;;;;;;5021585;28;19958;-88
2023/04/26 11:05:37;;;;;;;6.32;1.65;;;9.10;99.90;;;;;;5021641;28;20413;-88
2023/04/26 11:08:08;;;;;;;5.57;1.27;;;9.30;99.90;;;;;;5028606;28;20052;-90
2023/04/26 11:10:39;;;;;;;5.68;1.50;;;9.40;99.90;;;;;;5037363;28;20060;-88
2023/04/26 11:13:04;;;;;;;5.97;1.20;;;9.50;99.90;;;;;;5041143;28;20030;-91
2023/04/26 11:15:30;;;;;;;9.37;1.67;;;9.60;99.90;;;;;;5045137;28;20124;-89
2023/04/26 11:17:56;;;;;;;4.40;1.70;;;9.60;99.90;;;;;;5039771;28;20040;-88
2023/04/26 11:20:27;;;;;;;7.13;1.50;;;9.70;99.90;;;;;;5048873;28;20137;-89
2023/04/26 11:22:53;;;;;;;5.78;1.48;;;9.60;99.90;;;;;;5040550;28;20075;-88
2023/04/26 11:25:19;;;;;;;5.97;2.07;;;9.50;99.90;;;;;;5026586;28;20326;-89
2023/04/26 11:27:45;;;;;;;6.18;1.70;;;9.30;99.90;;;;;;5038687;28;20036;-88
2023/04/26 11:30:11;;;;;;;2.97;1.77;;;9.10;99.90;;;;;;5043803;28;20163;-90
2023/04/26 11:32:46;;;;;;;5.70;1.65;;;9.00;99.90;;;;;;5030623;28;20040;-88
2023/04/26 11:35:12;;;;;;;4.13;1.60;;;8.90;99.90;;;;;;5029112;28;20040;-88
2023/04/26 11:37:38;;;;;;;4.70;1.50;;;8.70;99.90;;;;;;5053063;28;20068;-87
2023/04/26 11:40:08;;;;;;;3.07;1.43;;;8.70;99.90;;;;;;5028046;28;20071;-87
2023/04/26 11:42:34;;;;;;;5.90;1.40;;;8.60;99.90;;;;;;5023054;28;20074;-90
2023/04/26 11:45:00;;;;;;;6.28;1.77;;;8.50;99.90;;;;;;5023610;28;20075;-89
2023/04/26 11:47:29;;;;;;;5.32;2.08;;;8.50;99.90;;;;;;5024622;28;20044;-88
2023/04/26 11:49:55;;;;;;;6.43;1.80;;;8.40;99.90;;;;;;5025746;28;20044;-90
2023/04/26 11:52:21;;;;;;;5.43;1.65;;;8.40;99.90;;;;;;5042130;28;20391;-89
2023/04/26 11:54:47;;;;;;;6.93;1.90;;;8.40;99.90;;;;;;5022455;28;20041;-88
2023/04/26 11:57:14;;;;;;;7.57;1.80;;;8.30;99.90;;;;;;5021052;28;20048;-88
2023/04/26 11:59:40;;;;;;;4.25;1.67;;;8.30;99.90;;;;;;5045318;28;20128;-88
2023/04/26 12:02:09;;;;;;;5.18;1.63;;;8.20;99.90;;;;;;5038442;28;20502;-87
2023/04/26 12:04:40;;;;;;;3.95;1.60;;;8.30;99.90;;;;;;5026591;28;20063;-89
2023/04/26 12:07:06;;;;;;;4.43;1.92;;;8.30;99.90;;;;;;5028927;28;20033;-87
2023/04/26 12:09:32;;;;;;;2.97;1.60;;;8.30;99.90;;;;;;5014613;28;20056;-88
2023/04/26 12:12:03;;;;;;;5.90;1.63;;;8.30;99.90;;;;;;5023666;28;20032;-88
2023/04/26 12:14:37;;;;;;;4.45;1.50;;;8.40;99.90;;;;;;5019937;28;20067;-91
2023/04/26 12:17:05;;;;;;;6.53;1.75;;;8.40;99.90;;;;;;5023690;28;20040;-88
2023/04/26 12:19:38;;;;;;;8.07;2.03;;;8.50;99.90;;;;;;5035450;28;20482;-88
2023/04/26 12:22:07;;;;;;;5.82;1.80;;;8.60;99.90;;;;;;5020765;28;20510;-88
2023/04/26 12:24:35;;;;;;;5.93;1.90;;;8.60;99.90;;;;;;5025598;28;20112;-88
2023/04/26 12:27:03;;;;;;;7.70;1.70;;;8.80;99.90;;;;;;5039460;28;20102;-88
2023/04/26 12:29:29;;;;;;;5.10;1.40;;;8.90;99.90;;;;;;5022712;28;20037;-88
2023/04/26 12:31:55;;;;;;;5.85;1.77;;;8.90;99.90;;;;;;5045007;28;20039;-89
2023/04/26 12:34:21;;;;;;;6.28;1.60;;;9.00;99.90;;;;;;5022215;28;20374;-88
2023/04/26 12:36:47;;;;;;;2.90;1.45;;;9.20;99.90;;;;;;5022780;28;20036;-88
2023/04/26 12:39:14;;;;;;;6.45;1.23;;;9.20;99.90;;;;;;5035809;28;20064;-88
2023/04/26 12:41:40;;;;;;;3.53;0.88;;;9.40;99.90;;;;;;5038168;28;20037;-88
2023/04/26 12:44:07;;;;;;;3.80;1.45;;;9.50;99.90;;;;;;5046907;28;20032;-88
2023/04/26 12:46:34;;;;;;;6.25;3.05;;;9.60;99.90;;;;;;5022887;28;20068;-88
2023/04/26 12:49:00;;;;;;;5.45;1.40;;;9.80;99.90;;;;;;5021640;28;20048;-88
2023/04/26 12:51:25;;;;;;;5.65;1.10;;;9.80;99.90;;;;;;5040226;28;20114;-89
2023/04/26 12:53:51;;;;;;;2.47;1.00;;;9.90;99.90;;;;;;5025480;28;20155;-88
2023/04/26 12:56:17;;;;;;;2.63;1.08;;;9.80;99.90;;;;;;5039524;28;20290;-89
2023/04/26 12:58:43;;;;;;;2.22;0.95;;;9.80;99.90;;;;;;5044520;28;20049;-90
2023/04/26 13:01:11;;;;;;;4.90;1.13;;;9.80;99.90;;;;;;5023546;28;20036;-90
2023/04/26 13:03:36;;;;;;;5.18;1.70;;;9.80;99.90;;;;;;5020234;28;20075;-90
2023/04/26 13:06:02;;;;;;;3.43;1.10;;;9.80;99.90;;;;;;5025102;28;20066;-90
2023/04/26 13:08:30;;;;;;;5.03;1.40;;;9.80;99.90;;;;;;5026561;28;20459;-90
2023/04/26 13:10:56;;;;;;;4.82;0.90;;;9.80;99.90;;;;;;5035753;28;20151;-90
2023/04/26 13:13:23;;;;;;;3.22;0.98;;;9.80;99.90;;;;;;5023918;28;20182;-90
2023/04/26 13:15:48;;;;;;;3.72;0.90;;;9.90;99.90;;;;;;5044903;28;20032;-91
2023/04/26 13:18:16;;;;;;;3.50;1.80;;;9.90;99.90;;;;;;5037121;28;20032;-90
2023/04/26 13:20:42;;;;;;;3.40;1.13;;;9.70;99.90;;;;;;5026493;28;20077;-89
2023/04/26 13:23:09;;;;;;;4.07;1.58;;;9.60;99.90;;;;;;5023302;28;20086;-89
2023/04/26 13:25:35;;;;;;;3.20;1.23;;;9.40;99.90;;;;;;5040825;28;20048;-90
2023/04/26 13:28:01;;;;;;;4.47;1.23;;;9.30;99.90;;;;;;5040823;28;20036;-90
2023/04/26 13:30:27;;;;;;;;;;;9.10;99.90;;;;;;5033701;28;20087;-89
2023/04/26 13:32:53;;;;;;;3.45;1.55;;;9.10;99.90;;;;;;5021225;28;20023;-92
2023/04/26 13:35:18;;;;;;;4.47;1.20;;;8.90;99.90;;;;;;5043691;28;20076;-89
2023/04/26 13:37:45;;;;;;;4.22;1.00;;;8.80;99.90;;;;;;5045034;28;20041;-89
2023/04/26 13:40:11;;;;;;;4.47;1.30;;;8.70;99.90;;;;;;5056090;28;20616;-89
2023/04/26 13:42:37;;;;;;;2.97;1.20;;;8.70;99.90;;;;;;5024240;28;20606;-89
2023/04/26 13:45:07;;;;;;;6.38;1.17;;;8.70;99.90;;;;;;5026633;28;20083;-90